sensor_id;sensor_type;location;lat;lon;timestamp;pressure;altitude;pressure_sealevel;temperature;humidity
39897;BME280;25567;48.276;14.242;2023-01-29T00:01:59;99404.34;;;-0.49;100.00
39897;BME280;25567;48.276;14.242;2023-01-29T00:04:27;99397.75;;;-0.54;100.00
39897;BME280;25567;48.276;14.242;2023-01-29T00:06:55;99393.91;;;-0.59;100.00
39897;BME280;25567;48.276;14.242;2023-01-29T00:09:22;99395.13;;;-0.63;100.00
39897;BME280;25567;48.276;14.242;2023-01-29T00:11:50;99402.09;;;-0.64;100.00
39897;BME280;25567;48.276;14.242;2023-01-29T00:14:18;99396.91;;;-0.64;100.00
39897;BME280;25567;48.276;14.242;2023-01-29T00:16:45;99402.09;;;-0.64;100.00
39897;BME280;25567;48.276;14.242;2023-01-29T00:19:13;99398.81;;;-0.66;100.00
39897;BME280;25567;48.276;14.242;2023-01-29T00:21:40;99396.91;;;-0.64;100.00
39897;BME280;25567;48.276;14.242;2023-01-29T00:24:09;99403.09;;;-0.65;100.00
39897;BME280;25567;48.276;14.242;2023-01-29T00:26:36;99408.31;;;-0.65;100.00
39897;BME280;25567;48.276;14.242;2023-01-29T00:29:05;99408.16;;;-0.63;100.00
39897;BME280;25567;48.276;14.242;2023-01-29T00:31:33;99412.00;;;-0.58;100.00
39897;BME280;25567;48.276;14.242;2023-01-29T00:34:01;99406.00;;;-0.58;100.00
39897;BME280;25567;48.276;14.242;2023-01-29T00:36:28;99406.00;;;-0.58;100.00
39897;BME280;25567;48.276;14.242;2023-01-29T00:38:58;99409.53;;;-0.59;100.00
39897;BME280;25567;48.276;14.242;2023-01-29T00:41:30;99418.31;;;-0.60;100.00
39897;BME280;25567;48.276;14.242;2023-01-29T00:44:14;99405.13;;;-0.59;100.00
39897;BME280;25567;48.276;14.242;2023-01-29T00:46:57;99406.00;;;-0.58;100.00
39897;BME280;25567;48.276;14.242;2023-01-29T00:49:26;99405.00;;;-0.57;100.00
39897;BME280;25567;48.276;14.242;2023-01-29T00:51:53;99409.25;;;-0.56;100.00
39897;BME280;25567;48.276;14.242;2023-01-29T00:54:37;99415.31;;;-0.56;100.00
39897;BME280;25567;48.276;14.242;2023-01-29T00:57:07;99406.38;;;-0.53;100.00
39897;BME280;25567;48.276;14.242;2023-01-29T00:59:35;99404.91;;;-0.56;100.00
39897;BME280;25567;48.276;14.242;2023-01-29T01:02:02;99391.97;;;-0.57;100.00
39897;BME280;25567;48.276;14.242;2023-01-29T01:04:45;99394.84;;;-0.60;100.00
39897;BME280;25567;48.276;14.242;2023-01-29T01:07:12;99394.03;;;-0.61;100.00
39897;BME280;25567;48.276;14.242;2023-01-29T01:09:40;99398.56;;;-0.63;100.00
39897;BME280;25567;48.276;14.242;2023-01-29T01:12:23;99402.25;;;-0.65;100.00
39897;BME280;25567;48.276;14.242;2023-01-29T01:14:51;99399.91;;;-0.69;100.00
39897;BME280;25567;48.276;14.242;2023-01-29T01:17:19;99399.63;;;-0.65;100.00
39897;BME280;25567;48.276;14.242;2023-01-29T01:19:46;99410.91;;;-0.65;100.00
39897;BME280;25567;48.276;14.242;2023-01-29T01:22:14;99408.97;;;-0.63;100.00
39897;BME280;25567;48.276;14.242;2023-01-29T01:24:41;99405.41;;;-0.62;100.00
39897;BME280;25567;48.276;14.242;2023-01-29T01:27:08;99402.09;;;-0.64;100.00
39897;BME280;25567;48.276;14.242;2023-01-29T01:29:36;99405.00;;;-0.67;100.00
39897;BME280;25567;48.276;14.242;2023-01-29T01:32:04;99407.72;;;-0.69;100.00
39897;BME280;25567;48.276;14.242;2023-01-29T01:34:32;99398.81;;;-0.66;100.00
39897;BME280;25567;48.276;14.242;2023-01-29T01:37:00;99399.47;;;-0.74;100.00
39897;BME280;25567;48.276;14.242;2023-01-29T01:39:28;99396.88;;;-0.74;100.00
39897;BME280;25567;48.276;14.242;2023-01-29T01:41:56;99397.69;;;-0.73;100.00
39897;BME280;25567;48.276;14.242;2023-01-29T01:47:27;99394.13;;;-0.72;100.00
39897;BME280;25567;48.276;14.242;2023-01-29T01:50:02;99394.41;;;-0.75;100.00
39897;BME280;25567;48.276;14.242;2023-01-29T01:52:38;99393.56;;;-0.76;100.00
39897;BME280;25567;48.276;14.242;2023-01-29T01:55:10;99392.75;;;-0.76;100.00
39897;BME280;25567;48.276;14.242;2023-01-29T01:57:40;99380.81;;;-0.79;100.00
39897;BME280;25567;48.276;14.242;2023-01-29T02:00:14;99383.94;;;-0.85;100.00
39897;BME280;25567;48.276;14.242;2023-01-29T02:02:44;99382.31;;;-0.86;100.00
39897;BME280;25567;48.276;14.242;2023-01-29T02:05:30;99381.75;;;-0.90;100.00
39897;BME280;25567;48.276;14.242;2023-01-29T02:08:18;99388.19;;;-0.94;100.00
39897;BME280;25567;48.276;14.242;2023-01-29T02:11:04;99394.19;;;-0.93;100.00
39897;BME280;25567;48.276;14.242;2023-01-29T02:13:32;99396.13;;;-0.95;100.00
39897;BME280;25567;48.276;14.242;2023-01-29T02:16:00;99397.44;;;-1.01;100.00
39897;BME280;25567;48.276;14.242;2023-01-29T02:18:28;99404.63;;;-0.93;100.00
39897;BME280;25567;48.276;14.242;2023-01-29T02:29:22;99417.66;;;-0.93;100.00
39897;BME280;25567;48.276;14.242;2023-01-29T02:34:53;99421.78;;;-0.91;100.00
39897;BME280;25567;48.276;14.242;2023-01-29T02:37:44;99426.84;;;-0.89;100.00
39897;BME280;25567;48.276;14.242;2023-01-29T02:40:33;99424.09;;;-0.88;100.00
39897;BME280;25567;48.276;14.242;2023-01-29T02:45:48;99424.94;;;-0.87;100.00
39897;BME280;25567;48.276;14.242;2023-01-29T02:48:21;99420.69;;;-0.88;100.00
39897;BME280;25567;48.276;14.242;2023-01-29T02:50:58;99425.09;;;-0.89;100.00
39897;BME280;25567;48.276;14.242;2023-01-29T02:53:39;99432.63;;;-0.86;100.00
39897;BME280;25567;48.276;14.242;2023-01-29T02:56:09;99419.16;;;-0.91;100.00
39897;BME280;25567;48.276;14.242;2023-01-29T02:58:41;99421.91;;;-0.92;100.00
39897;BME280;25567;48.276;14.242;2023-01-29T03:01:16;99422.72;;;-0.92;100.00
39897;BME280;25567;48.276;14.242;2023-01-29T03:03:49;99422.84;;;-0.93;100.00
39897;BME280;25567;48.276;14.242;2023-01-29T03:06:24;99423.56;;;-0.91;100.00
39897;BME280;25567;48.276;14.242;2023-01-29T03:09:01;99422.84;;;-0.93;100.00
39897;BME280;25567;48.276;14.242;2023-01-29T03:11:36;99426.94;;;-1.01;100.00
39897;BME280;25567;48.276;14.242;2023-01-29T03:14:11;99416.25;;;-0.97;100.00
39897;BME280;25567;48.276;14.242;2023-01-29T03:16:50;99416.41;;;-0.99;100.00
39897;BME280;25567;48.276;14.242;2023-01-29T03:22:00;99410.47;;;-1.01;100.00
39897;BME280;25567;48.276;14.242;2023-01-29T03:24:37;99415.16;;;-1.05;100.00
39897;BME280;25567;48.276;14.242;2023-01-29T03:27:27;99415.25;;;-1.06;100.00
39897;BME280;25567;48.276;14.242;2023-01-29T03:30:13;99415.66;;;-1.11;100.00
39897;BME280;25567;48.276;14.242;2023-01-29T03:33:00;99409.72;;;-1.13;100.00
39897;BME280;25567;48.276;14.242;2023-01-29T03:35:35;99411.38;;;-1.12;100.00
39897;BME280;25567;48.276;14.242;2023-01-29T03:38:06;99403.72;;;-1.13;100.00
39897;BME280;25567;48.276;14.242;2023-01-29T03:40:43;99410.72;;;-1.14;100.00
39897;BME280;25567;48.276;14.242;2023-01-29T03:43:25;99401.09;;;-1.13;100.00
39897;BME280;25567;48.276;14.242;2023-01-29T03:46:04;99403.13;;;-1.17;100.00
39897;BME280;25567;48.276;14.242;2023-01-29T03:48:38;99403.28;;;-1.19;100.00
39897;BME280;25567;48.276;14.242;2023-01-29T04:01:51;99405.56;;;-0.94;100.00
39897;BME280;25567;48.276;14.242;2023-01-29T04:04:26;99409.38;;;-1.08;100.00
39897;BME280;25567;48.276;14.242;2023-01-29T04:06:56;99409.06;;;-1.15;100.00
39897;BME280;25567;48.276;14.242;2023-01-29T04:09:33;99402.31;;;-1.18;100.00
39897;BME280;25567;48.276;14.242;2023-01-29T04:12:07;99400.50;;;-1.27;100.00
39897;BME280;25567;48.276;14.242;2023-01-29T04:14:36;99402.03;;;-1.24;100.00
39897;BME280;25567;48.276;14.242;2023-01-29T04:17:11;99404.75;;;-1.26;100.00
39897;BME280;25567;48.276;14.242;2023-01-29T04:19:41;99393.50;;;-1.26;100.00
39897;BME280;25567;48.276;14.242;2023-01-29T04:22:22;99396.94;;;-1.26;100.00
39897;BME280;25567;48.276;14.242;2023-01-29T04:24:50;99403.28;;;-1.19;100.00
39897;BME280;25567;48.276;14.242;2023-01-29T04:28:04;99402.19;;;-1.16;100.00
39897;BME280;25567;48.276;14.242;2023-01-29T04:33:43;99399.41;;;-1.24;100.00
39897;BME280;25567;48.276;14.242;2023-01-29T04:39:19;99393.94;;;-1.21;100.00
39897;BME280;25567;48.276;14.242;2023-01-29T04:53:01;99390.97;;;-1.16;100.00
39897;BME280;25567;48.276;14.242;2023-01-29T04:55:42;99398.06;;;-1.19;100.00
39897;BME280;25567;48.276;14.242;2023-01-29T04:58:38;99403.28;;;-1.19;100.00
39897;BME280;25567;48.276;14.242;2023-01-29T05:01:12;99409.50;;;-1.10;100.00
39897;BME280;25567;48.276;14.242;2023-01-29T05:03:43;99408.34;;;-1.17;100.00
39897;BME280;25567;48.276;14.242;2023-01-29T05:06:14;99410.66;;;-1.24;100.00
39897;BME280;25567;48.276;14.242;2023-01-29T05:08:42;99408.34;;;-1.17;100.00
39897;BME280;25567;48.276;14.242;2023-01-29T05:11:10;99404.63;;;-1.24;100.00
39897;BME280;25567;48.276;14.242;2023-01-29T05:13:40;99396.69;;;-1.23;100.00
39897;BME280;25567;48.276;14.242;2023-01-29T05:18:39;99402.25;;;-1.27;100.00
39897;BME280;25567;48.276;14.242;2023-01-29T05:21:08;99402.91;;;-1.14;100.00
39897;BME280;25567;48.276;14.242;2023-01-29T05:23:36;99399.41;;;-1.24;100.00
39897;BME280;25567;48.276;14.242;2023-01-29T05:26:05;99411.50;;;-1.23;100.00
39897;BME280;25567;48.276;14.242;2023-01-29T05:28:32;99404.50;;;-1.23;100.00
39897;BME280;25567;48.276;14.242;2023-01-29T05:31:00;99392.41;;;-1.24;100.00
39897;BME280;25567;48.276;14.242;2023-01-29T05:33:30;99405.44;;;-1.24;100.00
39897;BME280;25567;48.276;14.242;2023-01-29T05:35:58;99402.69;;;-1.22;100.00
39897;BME280;25567;48.276;14.242;2023-01-29T05:38:26;99401.31;;;-1.26;100.00
39897;BME280;25567;48.276;14.242;2023-01-29T05:40:53;99401.72;;;-1.31;100.00
39897;BME280;25567;48.276;14.242;2023-01-29T05:43:23;99398.41;;;-1.33;100.00
39897;BME280;25567;48.276;14.242;2023-01-29T05:45:55;99401.31;;;-1.26;100.00
39897;BME280;25567;48.276;14.242;2023-01-29T05:48:24;99402.97;;;-1.25;100.00
39897;BME280;25567;48.276;14.242;2023-01-29T05:51:01;99399.41;;;-1.24;100.00
39897;BME280;25567;48.276;14.242;2023-01-29T05:53:30;99401.63;;;-1.20;100.00
39897;BME280;25567;48.276;14.242;2023-01-29T05:56:02;99403.97;;;-1.16;100.00
39897;BME280;25567;48.276;14.242;2023-01-29T05:58:32;99407.25;;;-1.14;100.00
39897;BME280;25567;48.276;14.242;2023-01-29T06:01:16;99401.94;;;-1.13;100.00
39897;BME280;25567;48.276;14.242;2023-01-29T06:03:45;99408.50;;;-1.09;100.00
39897;BME280;25567;48.276;14.242;2023-01-29T06:06:13;99407.25;;;-1.14;100.00
39897;BME280;25567;48.276;14.242;2023-01-29T06:08:41;99409.06;;;-1.15;100.00
39897;BME280;25567;48.276;14.242;2023-01-29T06:11:11;99418.63;;;-1.15;100.00
39897;BME280;25567;48.276;14.242;2023-01-29T06:13:39;99413.41;;;-1.15;100.00
39897;BME280;25567;48.276;14.242;2023-01-29T06:16:08;99406.44;;;-1.15;100.00
39897;BME280;25567;48.276;14.242;2023-01-29T06:18:37;99401.41;;;-1.07;100.00
39897;BME280;25567;48.276;14.242;2023-01-29T06:21:06;99414.38;;;-0.95;100.00
39897;BME280;25567;48.276;14.242;2023-01-29T06:23:36;99403.53;;;-0.91;100.00
39897;BME280;25567;48.276;14.242;2023-01-29T06:26:07;99407.66;;;-0.88;100.00
39897;BME280;25567;48.276;14.242;2023-01-29T06:28:35;99410.28;;;-0.78;100.00
39897;BME280;25567;48.276;14.242;2023-01-29T06:31:05;99405.75;;;-0.86;100.00
39897;BME280;25567;48.276;14.242;2023-01-29T06:33:52;99402.28;;;-0.96;100.00
39897;BME280;25567;48.276;14.242;2023-01-29T06:36:20;99406.25;;;-1.02;100.00
39897;BME280;25567;48.276;14.242;2023-01-29T06:38:48;99400.50;;;-0.96;100.00
39897;BME280;25567;48.276;14.242;2023-01-29T06:41:17;99403.66;;;-0.92;100.00
39897;BME280;25567;48.276;14.242;2023-01-29T06:43:45;99407.63;;;-0.98;100.00
39897;BME280;25567;48.276;14.242;2023-01-29T06:46:13;99411.88;;;-0.97;100.00
39897;BME280;25567;48.276;14.242;2023-01-29T06:48:41;99418.50;;;-0.93;100.00
39897;BME280;25567;48.276;14.242;2023-01-29T06:51:09;99416.00;;;-0.94;100.00
39897;BME280;25567;48.276;14.242;2023-01-29T06:53:38;99413.91;;;-1.01;100.00
39897;BME280;25567;48.276;14.242;2023-01-29T06:56:06;99416.56;;;-0.91;100.00
39897;BME280;25567;48.276;14.242;2023-01-29T06:58:36;99400.06;;;-1.01;100.00
39897;BME280;25567;48.276;14.242;2023-01-29T07:01:06;99402.34;;;-1.08;100.00
39897;BME280;25567;48.276;14.242;2023-01-29T07:03:34;99406.13;;;-1.01;100.00
39897;BME280;25567;48.276;14.242;2023-01-29T07:06:02;99401.34;;;-0.95;100.00
39897;BME280;25567;48.276;14.242;2023-01-29T07:08:30;99409.25;;;-0.97;100.00
39897;BME280;25567;48.276;14.242;2023-01-29T07:10:59;99409.09;;;-1.05;100.00
39897;BME280;25567;48.276;14.242;2023-01-29T07:13:27;99417.44;;;-1.11;100.00
39897;BME280;25567;48.276;14.242;2023-01-29T07:15:58;99408.31;;;-0.96;100.00
39897;BME280;25567;48.276;14.242;2023-01-29T07:18:28;99416.78;;;-1.04;100.00
39897;BME280;25567;48.276;14.242;2023-01-29T07:20:57;99415.16;;;-1.05;100.00
39897;BME280;25567;48.276;14.242;2023-01-29T07:23:24;99418.38;;;-1.12;100.00
39897;BME280;25567;48.276;14.242;2023-01-29T07:25:52;99404.84;;;-1.06;99.56
39897;BME280;25567;48.276;14.242;2023-01-29T07:28:19;99407.34;;;-1.05;99.50
39897;BME280;25567;48.276;14.242;2023-01-29T07:30:47;99413.63;;;-1.07;99.69
39897;BME280;25567;48.276;14.242;2023-01-29T07:33:14;99411.38;;;-1.12;99.26
39897;BME280;25567;48.276;14.242;2023-01-29T07:35:42;99411.25;;;-1.10;99.56
39897;BME280;25567;48.276;14.242;2023-01-29T07:38:10;99413.50;;;-1.06;99.11
39897;BME280;25567;48.276;14.242;2023-01-29T07:40:38;99404.59;;;-1.03;98.75
39897;BME280;25567;48.276;14.242;2023-01-29T07:43:08;99406.13;;;-1.01;98.78
39897;BME280;25567;48.276;14.242;2023-01-29T07:45:37;99402.34;;;-1.08;98.34
39897;BME280;25567;48.276;14.242;2023-01-29T07:48:08;99388.66;;;-1.10;97.94
39897;BME280;25567;48.276;14.242;2023-01-29T07:50:38;99399.59;;;-1.16;98.15
39897;BME280;25567;48.276;14.242;2023-01-29T07:53:06;99400.72;;;-1.09;98.11
39897;BME280;25567;48.276;14.242;2023-01-29T07:55:34;99402.22;;;-1.06;98.02
39897;BME280;25567;48.276;14.242;2023-01-29T07:58:02;99395.81;;;-1.02;98.17
39897;BME280;25567;48.276;14.242;2023-01-29T08:00:31;99404.44;;;-1.11;97.03
39897;BME280;25567;48.276;14.242;2023-01-29T08:03:10;99403.97;;;-1.16;97.20
39897;BME280;25567;48.276;14.242;2023-01-29T08:05:38;99403.53;;;-1.22;96.82
39897;BME280;25567;48.276;14.242;2023-01-29T08:08:05;99403.22;;;-1.28;97.56
39897;BME280;25567;48.276;14.242;2023-01-29T08:10:35;99415.47;;;-1.19;97.61
39897;BME280;25567;48.276;14.242;2023-01-29T08:13:04;99421.94;;;-1.13;97.67
39897;BME280;25567;48.276;14.242;2023-01-29T08:15:32;99418.75;;;-1.17;98.06
39897;BME280;25567;48.276;14.242;2023-01-29T08:18:04;99416.16;;;-1.17;97.81
39897;BME280;25567;48.276;14.242;2023-01-29T08:20:32;99427.41;;;-1.16;98.07
39897;BME280;25567;48.276;14.242;2023-01-29T08:23:04;99422.84;;;-1.24;98.09
39897;BME280;25567;48.276;14.242;2023-01-29T08:25:33;99420.25;;;-1.24;97.77
39897;BME280;25567;48.276;14.242;2023-01-29T08:28:01;99422.72;;;-1.23;98.00
39897;BME280;25567;48.276;14.242;2023-01-29T08:30:31;99430.03;;;-1.16;97.78
39897;BME280;25567;48.276;14.242;2023-01-29T08:32:58;99434.81;;;-1.12;97.77
39897;BME280;25567;48.276;14.242;2023-01-29T08:35:26;99433.44;;;-1.16;97.90
39897;BME280;25567;48.276;14.242;2023-01-29T08:37:55;99433.72;;;-1.19;98.11
39897;BME280;25567;48.276;14.242;2023-01-29T08:40:26;99435.59;;;-1.21;97.37
39897;BME280;25567;48.276;14.242;2023-01-29T08:42:57;99441.88;;;-1.24;97.69
39897;BME280;25567;48.276;14.242;2023-01-29T08:45:29;99442.19;;;-1.17;97.00
39897;BME280;25567;48.276;14.242;2023-01-29T08:47:57;99450.88;;;-1.07;96.53
39897;BME280;25567;48.276;14.242;2023-01-29T08:50:24;99452.91;;;-1.10;95.53
39897;BME280;25567;48.276;14.242;2023-01-29T08:52:57;99455.66;;;-1.12;95.83
39897;BME280;25567;48.276;14.242;2023-01-29T08:55:25;99452.91;;;-1.10;95.90
39897;BME280;25567;48.276;14.242;2023-01-29T08:57:55;99460.41;;;-1.17;94.89
39897;BME280;25567;48.276;14.242;2023-01-29T09:00:27;99467.09;;;-1.03;95.59
39897;BME280;25567;48.276;14.242;2023-01-29T09:02:55;99465.50;;;-1.15;95.85
39897;BME280;25567;48.276;14.242;2023-01-29T09:05:22;99467.41;;;-1.18;95.98
39897;BME280;25567;48.276;14.242;2023-01-29T09:07:50;99471.53;;;-1.15;96.18
39897;BME280;25567;48.276;14.242;2023-01-29T09:10:19;99472.66;;;-1.08;95.56
39897;BME280;25567;48.276;14.242;2023-01-29T09:12:47;99475.72;;;-1.03;95.46
39897;BME280;25567;48.276;14.242;2023-01-29T09:15:15;99475.72;;;-1.03;94.29
39897;BME280;25567;48.276;14.242;2023-01-29T09:17:42;99482.28;;;-1.08;92.90
39897;BME280;25567;48.276;14.242;2023-01-29T09:20:10;99484.03;;;-1.09;91.63
39897;BME280;25567;48.276;14.242;2023-01-29T09:22:38;99490.53;;;-1.03;91.11
39897;BME280;25567;48.276;14.242;2023-01-29T09:25:07;99483.66;;;-1.04;90.64
39897;BME280;25567;48.276;14.242;2023-01-29T09:27:35;99485.75;;;-0.98;91.23
39897;BME280;25567;48.276;14.242;2023-01-29T09:30:04;99486.44;;;-0.96;91.62
39897;BME280;25567;48.276;14.242;2023-01-29T09:32:33;99484.41;;;-0.92;90.94
39897;BME280;25567;48.276;14.242;2023-01-29T09:35:22;99481.16;;;-0.85;91.53
39897;BME280;25567;48.276;14.242;2023-01-29T09:37:50;99486.50;;;-0.86;92.48
39897;BME280;25567;48.276;14.242;2023-01-29T09:40:34;99485.09;;;-0.90;91.39
39897;BME280;25567;48.276;14.242;2023-01-29T09:43:12;99491.53;;;-0.94;91.41
39897;BME280;25567;48.276;14.242;2023-01-29T09:45:51;99497.03;;;-0.88;90.33
39897;BME280;25567;48.276;14.242;2023-01-29T09:48:24;99493.34;;;-0.85;90.68
39897;BME280;25567;48.276;14.242;2023-01-29T09:50:57;99494.72;;;-0.81;90.19
39897;BME280;25567;48.276;14.242;2023-01-29T09:53:39;99494.31;;;-0.86;89.97
39897;BME280;25567;48.276;14.242;2023-01-29T09:56:18;99489.50;;;-0.91;89.69
39897;BME280;25567;48.276;14.242;2023-01-29T09:58:47;99490.06;;;-0.87;90.48
39897;BME280;25567;48.276;14.242;2023-01-29T10:01:26;99495.06;;;-0.74;90.65
39897;BME280;25567;48.276;14.242;2023-01-29T10:06:48;99499.94;;;-0.81;89.54
39897;BME280;25567;48.276;14.242;2023-01-29T10:09:47;99496.69;;;-0.73;88.65
39897;BME280;25567;48.276;14.242;2023-01-29T10:25:44;99497.56;;;-0.63;87.81
39897;BME280;25567;48.276;14.242;2023-01-29T10:28:32;99494.28;;;-0.65;84.78
39897;BME280;25567;48.276;14.242;2023-01-29T10:31:10;99488.50;;;-0.69;85.02
39897;BME280;25567;48.276;14.242;2023-01-29T10:33:47;99489.31;;;-0.68;85.08
39897;BME280;25567;48.276;14.242;2023-01-29T10:39:02;99487.41;;;-0.66;84.25
39897;BME280;25567;48.276;14.242;2023-01-29T10:41:56;99483.88;;;-0.65;83.55
39897;BME280;25567;48.276;14.242;2023-01-29T10:44:46;99481.50;;;-0.68;83.05
39897;BME280;25567;48.276;14.242;2023-01-29T10:47:43;99469.22;;;-0.56;83.97
39897;BME280;25567;48.276;14.242;2023-01-29T10:50:38;99471.59;;;-0.43;83.41
39897;BME280;25567;48.276;14.242;2023-01-29T10:53:16;99459.38;;;-0.43;81.92
39897;BME280;25567;48.276;14.242;2023-01-29T10:58:54;99452.41;;;-0.42;83.31
39897;BME280;25567;48.276;14.242;2023-01-29T11:01:24;99451.00;;;-0.46;82.78
39897;BME280;25567;48.276;14.242;2023-01-29T11:03:56;99450.69;;;-0.53;82.46
39897;BME280;25567;48.276;14.242;2023-01-29T11:06:27;99442.34;;;-0.47;83.00
39897;BME280;25567;48.276;14.242;2023-01-29T11:11:48;99429.31;;;-0.47;81.55
39897;BME280;25567;48.276;14.242;2023-01-29T11:14:27;99433.16;;;-0.51;81.51
39897;BME280;25567;48.276;14.242;2023-01-29T11:16:58;99435.91;;;-0.53;81.06
39897;BME280;25567;48.276;14.242;2023-01-29T11:19:43;99432.34;;;-0.52;80.07
39897;BME280;25567;48.276;14.242;2023-01-29T11:22:13;99428.47;;;-0.57;80.17
39897;BME280;25567;48.276;14.242;2023-01-29T11:24:42;99435.06;;;-0.53;80.55
39897;BME280;25567;48.276;14.242;2023-01-29T11:27:25;99422.72;;;-0.61;81.07
39897;BME280;25567;48.276;14.242;2023-01-29T11:29:56;99419.97;;;-0.49;81.05
39897;BME280;25567;48.276;14.242;2023-01-29T11:32:28;99406.00;;;-0.48;81.22
39897;BME280;25567;48.276;14.242;2023-01-29T11:35:21;99406.28;;;-0.42;82.70
39897;BME280;25567;48.276;14.242;2023-01-29T11:37:45;99400.38;;;-0.44;82.56
39897;BME280;25567;48.276;14.242;2023-01-29T11:40:34;99399.41;;;-0.43;83.53
39897;BME280;25567;48.276;14.242;2023-01-29T11:43:20;99384.91;;;-0.36;81.55
39897;BME280;25567;48.276;14.242;2023-01-29T11:45:50;99382.28;;;-0.36;81.08
39897;BME280;25567;48.276;14.242;2023-01-29T11:48:22;99380.09;;;-0.30;79.91
39897;BME280;25567;48.276;14.242;2023-01-29T11:50:54;99383.38;;;-0.38;79.51
39897;BME280;25567;48.276;14.242;2023-01-29T11:53:39;99378.31;;;-0.40;80.92
39897;BME280;25567;48.276;14.242;2023-01-29T11:56:17;99372.97;;;-0.38;81.96
39897;BME280;25567;48.276;14.242;2023-01-29T11:58:47;99367.88;;;-0.40;81.58
39897;BME280;25567;48.276;14.242;2023-01-29T12:01:26;99368.56;;;-0.38;80.75
39897;BME280;25567;48.276;14.242;2023-01-29T12:03:56;99369.41;;;-0.37;81.28
39897;BME280;25567;48.276;14.242;2023-01-29T12:06:40;99363.63;;;-0.31;81.47
39897;BME280;25567;48.276;14.242;2023-01-29T12:09:13;99361.44;;;-0.26;81.81
39897;BME280;25567;48.276;14.242;2023-01-29T12:11:42;99351.97;;;-0.27;80.20
39897;BME280;25567;48.276;14.242;2023-01-29T12:14:29;99347.59;;;-0.26;80.61
39897;BME280;25567;48.276;14.242;2023-01-29T12:17:05;99344.00;;;-0.25;80.50
39897;BME280;25567;48.276;14.242;2023-01-29T12:19:44;99335.50;;;-0.27;79.96
39897;BME280;25567;48.276;14.242;2023-01-29T12:22:22;99335.91;;;-0.22;79.95
39897;BME280;25567;48.276;14.242;2023-01-29T12:27:31;99325.06;;;-0.08;80.90
39897;BME280;25567;48.276;14.242;2023-01-29T12:30:16;99322.03;;;-0.03;79.32
39897;BME280;25567;48.276;14.242;2023-01-29T12:32:55;99324.66;;;-0.13;78.81
39897;BME280;25567;48.276;14.242;2023-01-29T12:35:30;99309.56;;;-0.09;77.82
39897;BME280;25567;48.276;14.242;2023-01-29T12:38:09;99311.78;;;-0.14;78.32
39897;BME280;25567;48.276;14.242;2023-01-29T12:40:45;99302.28;;;-0.15;78.81
39897;BME280;25567;48.276;14.242;2023-01-29T12:43:18;99310.38;;;-0.09;79.74
39897;BME280;25567;48.276;14.242;2023-01-29T12:45:52;99313.41;;;-0.04;78.70
39897;BME280;25567;48.276;14.242;2023-01-29T12:48:26;99300.38;;;-0.04;78.47
39897;BME280;25567;48.276;14.242;2023-01-29T12:51:05;99294.44;;;-0.06;79.28
39897;BME280;25567;48.276;14.242;2023-01-29T12:53:38;99288.72;;;-0.09;79.95
39897;BME280;25567;48.276;14.242;2023-01-29T12:56:25;99272.88;;;0.02;79.03
39897;BME280;25567;48.276;14.242;2023-01-29T12:58:56;99272.34;;;-0.02;79.02
39897;BME280;25567;48.276;14.242;2023-01-29T13:01:42;99269.88;;;0.07;79.97
39897;BME280;25567;48.276;14.242;2023-01-29T13:07:00;99273.00;;;0.10;79.06
39897;BME280;25567;48.276;14.242;2023-01-29T13:09:31;99279.31;;;0.08;77.60
39897;BME280;25567;48.276;14.242;2023-01-29T13:12:05;99273.44;;;0.06;79.39
39897;BME280;25567;48.276;14.242;2023-01-29T13:20:23;99266.84;;;-0.08;77.93
39897;BME280;25567;48.276;14.242;2023-01-29T13:22:58;99269.31;;;-0.07;78.20
39897;BME280;25567;48.276;14.242;2023-01-29T13:25:29;99264.94;;;-0.06;77.23
39897;BME280;25567;48.276;14.242;2023-01-29T13:27:56;99261.81;;;-0.20;77.25
39897;BME280;25567;48.276;14.242;2023-01-29T13:30:30;99262.47;;;-0.08;77.74
39897;BME280;25567;48.276;14.242;2023-01-29T13:33:00;99276.19;;;-0.06;77.66
39897;BME280;25567;48.276;14.242;2023-01-29T13:35:41;99267.97;;;-0.11;76.92
39897;BME280;25567;48.276;14.242;2023-01-29T13:38:22;99274.69;;;-0.08;76.64
39897;BME280;25567;48.276;14.242;2023-01-29T13:41:00;99279.22;;;-0.10;77.36
39897;BME280;25567;48.276;14.242;2023-01-29T13:43:35;99273.31;;;-0.12;78.21
39897;BME280;25567;48.276;14.242;2023-01-29T13:46:15;99275.94;;;-0.12;77.98
39897;BME280;25567;48.276;14.242;2023-01-29T13:48:48;99277.56;;;-0.11;79.52
39897;BME280;25567;48.276;14.242;2023-01-29T13:51:20;99270.72;;;-0.12;79.78
39897;BME280;25567;48.276;14.242;2023-01-29T13:54:12;99280.47;;;-0.14;78.21
39897;BME280;25567;48.276;14.242;2023-01-29T13:56:45;99272.22;;;-0.10;78.58
39897;BME280;25567;48.276;14.242;2023-01-29T13:59:47;99269.63;;;-0.10;78.27
39897;BME280;25567;48.276;14.242;2023-01-29T14:02:21;99265.63;;;-0.14;78.43
39897;BME280;25567;48.276;14.242;2023-01-29T14:04:50;99261.66;;;-0.18;80.12
39897;BME280;25567;48.276;14.242;2023-01-29T14:10:19;99244.91;;;-0.25;78.45
39897;BME280;25567;48.276;14.242;2023-01-29T14:12:51;99252.88;;;-0.17;78.05
39897;BME280;25567;48.276;14.242;2023-01-29T14:18:05;99240.25;;;-0.12;79.22
39897;BME280;25567;48.276;14.242;2023-01-29T14:25:58;99231.75;;;-0.14;77.59
39897;BME280;25567;48.276;14.242;2023-01-29T14:28:29;99227.06;;;-0.10;77.99
39897;BME280;25567;48.276;14.242;2023-01-29T14:30:59;99234.91;;;-0.10;78.21
39897;BME280;25567;48.276;14.242;2023-01-29T14:33:34;99231.75;;;-0.14;78.47
39897;BME280;25567;48.276;14.242;2023-01-29T14:36:05;99218.41;;;-0.11;78.90
39897;BME280;25567;48.276;14.242;2023-01-29T14:38:39;99224.72;;;-0.13;79.33
39897;BME280;25567;48.276;14.242;2023-01-29T14:41:27;99224.63;;;-0.12;78.90
39897;BME280;25567;48.276;14.242;2023-01-29T14:46:57;99223.22;;;-0.16;78.52
39897;BME280;25567;48.276;14.242;2023-01-29T14:49:51;99225.97;;;-0.18;79.02
39897;BME280;25567;48.276;14.242;2023-01-29T14:52:32;99218.84;;;-0.25;79.74
39897;BME280;25567;48.276;14.242;2023-01-29T14:55:06;99215.56;;;-0.27;80.17
39897;BME280;25567;48.276;14.242;2023-01-29T14:57:37;99224.88;;;-0.15;79.69